sensor_id;sensor_type;location;lat;lon;timestamp;temperature;humidity
9965;DHT22;5023;53.554;9.964;2023-01-06T00:00:07;7.70;99.90
9965;DHT22;5023;53.554;9.964;2023-01-06T00:05:09;7.60;99.90
9965;DHT22;5023;53.554;9.964;2023-01-06T00:10:11;7.60;99.90
9965;DHT22;5023;53.554;9.964;2023-01-06T00:15:16;7.60;99.90
9965;DHT22;5023;53.554;9.964;2023-01-06T00:20:19;7.80;99.90
9965;DHT22;5023;53.554;9.964;2023-01-06T00:25:21;7.60;99.90
9965;DHT22;5023;53.554;9.964;2023-01-06T00:30:25;7.60;99.90
9965;DHT22;5023;53.554;9.964;2023-01-06T00:35:27;7.60;99.90
9965;DHT22;5023;53.554;9.964;2023-01-06T00:40:31;7.60;99.90
9965;DHT22;5023;53.554;9.964;2023-01-06T00:45:35;7.60;99.90
9965;DHT22;5023;53.554;9.964;2023-01-06T00:50:38;7.60;99.90
9965;DHT22;5023;53.554;9.964;2023-01-06T00:55:41;7.60;99.90
9965;DHT22;5023;53.554;9.964;2023-01-06T01:00:44;7.60;99.90
9965;DHT22;5023;53.554;9.964;2023-01-06T01:05:46;7.50;99.90
9965;DHT22;5023;53.554;9.964;2023-01-06T01:10:48;7.50;99.90
9965;DHT22;5023;53.554;9.964;2023-01-06T01:15:54;7.60;99.90
9965;DHT22;5023;53.554;9.964;2023-01-06T01:20:55;7.50;99.90
9965;DHT22;5023;53.554;9.964;2023-01-06T01:25:57;7.50;99.90
9965;DHT22;5023;53.554;9.964;2023-01-06T01:31:02;7.60;99.90
9965;DHT22;5023;53.554;9.964;2023-01-06T01:36:05;7.60;99.90
9965;DHT22;5023;53.554;9.964;2023-01-06T01:41:08;7.60;99.90
9965;DHT22;5023;53.554;9.964;2023-01-06T01:46:21;7.70;99.90
9965;DHT22;5023;53.554;9.964;2023-01-06T01:51:28;7.70;99.90
9965;DHT22;5023;53.554;9.964;2023-01-06T01:56:34;7.70;99.90
9965;DHT22;5023;53.554;9.964;2023-01-06T02:01:39;7.60;99.90
9965;DHT22;5023;53.554;9.964;2023-01-06T02:06:40;7.60;99.90
9965;DHT22;5023;53.554;9.964;2023-01-06T02:11:43;7.80;99.90
9965;DHT22;5023;53.554;9.964;2023-01-06T02:17:03;7.80;99.90
9965;DHT22;5023;53.554;9.964;2023-01-06T02:22:19;7.80;99.90
9965;DHT22;5023;53.554;9.964;2023-01-06T02:27:46;7.70;99.90
9965;DHT22;5023;53.554;9.964;2023-01-06T02:33:07;7.70;99.90
9965;DHT22;5023;53.554;9.964;2023-01-06T02:38:23;7.80;99.90
9965;DHT22;5023;53.554;9.964;2023-01-06T02:43:39;7.80;99.90
9965;DHT22;5023;53.554;9.964;2023-01-06T02:48:55;7.80;99.90
9965;DHT22;5023;53.554;9.964;2023-01-06T02:54:07;7.90;99.90
9965;DHT22;5023;53.554;9.964;2023-01-06T02:59:14;7.90;99.90
9965;DHT22;5023;53.554;9.964;2023-01-06T03:04:23;7.90;99.90
9965;DHT22;5023;53.554;9.964;2023-01-06T03:09:33;8.00;99.90
9965;DHT22;5023;53.554;9.964;2023-01-06T03:14:38;8.10;99.90
9965;DHT22;5023;53.554;9.964;2023-01-06T03:19:43;8.20;99.90
9965;DHT22;5023;53.554;9.964;2023-01-06T03:24:46;8.20;99.90
9965;DHT22;5023;53.554;9.964;2023-01-06T03:29:50;8.30;99.90
9965;DHT22;5023;53.554;9.964;2023-01-06T03:35:11;8.30;99.90
9965;DHT22;5023;53.554;9.964;2023-01-06T03:40:27;8.40;99.90
9965;DHT22;5023;53.554;9.964;2023-01-06T03:45:38;8.50;99.90
9965;DHT22;5023;53.554;9.964;2023-01-06T03:50:47;8.50;99.90
9965;DHT22;5023;53.554;9.964;2023-01-06T03:55:57;8.60;99.90
9965;DHT22;5023;53.554;9.964;2023-01-06T04:01:01;8.70;99.90
9965;DHT22;5023;53.554;9.964;2023-01-06T04:06:05;8.80;99.90
9965;DHT22;5023;53.554;9.964;2023-01-06T04:11:08;8.90;99.90
9965;DHT22;5023;53.554;9.964;2023-01-06T04:16:30;8.90;99.90
9965;DHT22;5023;53.554;9.964;2023-01-06T04:21:34;9.10;99.90
9965;DHT22;5023;53.554;9.964;2023-01-06T04:26:36;9.20;99.90
9965;DHT22;5023;53.554;9.964;2023-01-06T04:31:38;9.40;99.90
9965;DHT22;5023;53.554;9.964;2023-01-06T04:36:42;9.50;99.90
9965;DHT22;5023;53.554;9.964;2023-01-06T04:41:44;9.60;99.90
9965;DHT22;5023;53.554;9.964;2023-01-06T04:46:48;9.70;99.90
9965;DHT22;5023;53.554;9.964;2023-01-06T04:51:52;9.70;99.90
9965;DHT22;5023;53.554;9.964;2023-01-06T04:56:54;9.80;99.90
9965;DHT22;5023;53.554;9.964;2023-01-06T05:01:59;9.80;99.90
9965;DHT22;5023;53.554;9.964;2023-01-06T05:07:03;9.90;99.90
9965;DHT22;5023;53.554;9.964;2023-01-06T05:12:05;9.90;99.90
9965;DHT22;5023;53.554;9.964;2023-01-06T05:17:09;9.90;99.90
9965;DHT22;5023;53.554;9.964;2023-01-06T05:22:12;10.00;99.90
9965;DHT22;5023;53.554;9.964;2023-01-06T05:27:14;10.00;99.90
9965;DHT22;5023;53.554;9.964;2023-01-06T05:32:16;10.00;99.90
9965;DHT22;5023;53.554;9.964;2023-01-06T05:37:20;10.00;99.90
9965;DHT22;5023;53.554;9.964;2023-01-06T05:42:22;10.00;99.90
9965;DHT22;5023;53.554;9.964;2023-01-06T05:47:24;10.10;99.90
9965;DHT22;5023;53.554;9.964;2023-01-06T05:52:29;10.00;99.90
9965;DHT22;5023;53.554;9.964;2023-01-06T05:57:32;10.10;99.90
9965;DHT22;5023;53.554;9.964;2023-01-06T06:02:34;10.10;99.90
9965;DHT22;5023;53.554;9.964;2023-01-06T06:07:37;10.10;99.90
9965;DHT22;5023;53.554;9.964;2023-01-06T06:12:41;10.10;99.90
9965;DHT22;5023;53.554;9.964;2023-01-06T06:17:43;10.10;99.90
9965;DHT22;5023;53.554;9.964;2023-01-06T06:22:46;10.20;99.90
9965;DHT22;5023;53.554;9.964;2023-01-06T06:27:48;10.20;99.90
9965;DHT22;5023;53.554;9.964;2023-01-06T06:32:52;10.10;99.90
9965;DHT22;5023;53.554;9.964;2023-01-06T06:37:55;10.10;99.90
9965;DHT22;5023;53.554;9.964;2023-01-06T06:43:00;10.20;99.90
9965;DHT22;5023;53.554;9.964;2023-01-06T06:48:02;10.20;99.90
9965;DHT22;5023;53.554;9.964;2023-01-06T06:53:07;10.20;99.90
9965;DHT22;5023;53.554;9.964;2023-01-06T06:58:10;10.20;99.90
9965;DHT22;5023;53.554;9.964;2023-01-06T07:03:12;10.20;99.90
9965;DHT22;5023;53.554;9.964;2023-01-06T07:08:16;10.30;99.90
9965;DHT22;5023;53.554;9.964;2023-01-06T07:13:18;10.30;99.90
9965;DHT22;5023;53.554;9.964;2023-01-06T07:18:21;10.30;99.90
9965;DHT22;5023;53.554;9.964;2023-01-06T07:23:25;10.30;99.90
9965;DHT22;5023;53.554;9.964;2023-01-06T07:28:29;10.30;99.90
9965;DHT22;5023;53.554;9.964;2023-01-06T07:33:32;10.30;99.90
9965;DHT22;5023;53.554;9.964;2023-01-06T07:38:35;10.40;99.90
9965;DHT22;5023;53.554;9.964;2023-01-06T07:43:38;10.30;99.90
9965;DHT22;5023;53.554;9.964;2023-01-06T07:48:41;10.30;99.90
9965;DHT22;5023;53.554;9.964;2023-01-06T07:53:45;10.40;99.90
9965;DHT22;5023;53.554;9.964;2023-01-06T07:58:47;10.30;99.90
9965;DHT22;5023;53.554;9.964;2023-01-06T08:03:50;10.40;99.90
9965;DHT22;5023;53.554;9.964;2023-01-06T08:08:54;10.40;99.90
9965;DHT22;5023;53.554;9.964;2023-01-06T08:13:57;10.40;99.90
9965;DHT22;5023;53.554;9.964;2023-01-06T08:18:59;10.40;99.90
9965;DHT22;5023;53.554;9.964;2023-01-06T08:24:07;10.40;99.90
9965;DHT22;5023;53.554;9.964;2023-01-06T08:29:09;10.40;99.90
9965;DHT22;5023;53.554;9.964;2023-01-06T08:34:11;10.40;99.90
9965;DHT22;5023;53.554;9.964;2023-01-06T08:39:16;10.50;99.90
9965;DHT22;5023;53.554;9.964;2023-01-06T08:44:19;10.50;99.90
9965;DHT22;5023;53.554;9.964;2023-01-06T08:49:21;10.50;99.90
9965;DHT22;5023;53.554;9.964;2023-01-06T08:54:27;10.50;99.90
9965;DHT22;5023;53.554;9.964;2023-01-06T08:59:30;10.50;99.90
9965;DHT22;5023;53.554;9.964;2023-01-06T09:04:32;10.50;99.90
9965;DHT22;5023;53.554;9.964;2023-01-06T09:09:35;10.50;99.90
9965;DHT22;5023;53.554;9.964;2023-01-06T09:14:37;10.60;99.90
9965;DHT22;5023;53.554;9.964;2023-01-06T09:19:39;10.60;99.90
9965;DHT22;5023;53.554;9.964;2023-01-06T09:24:43;10.60;99.90
9965;DHT22;5023;53.554;9.964;2023-01-06T09:29:45;10.60;99.90
9965;DHT22;5023;53.554;9.964;2023-01-06T09:34:47;10.70;99.90
9965;DHT22;5023;53.554;9.964;2023-01-06T09:39:51;10.80;99.90
9965;DHT22;5023;53.554;9.964;2023-01-06T09:44:55;10.70;99.90
9965;DHT22;5023;53.554;9.964;2023-01-06T09:50:02;10.60;99.90
9965;DHT22;5023;53.554;9.964;2023-01-06T09:55:14;10.60;99.90
9965;DHT22;5023;53.554;9.964;2023-01-06T10:00:25;10.60;99.90
9965;DHT22;5023;53.554;9.964;2023-01-06T10:05:37;10.70;99.90
9965;DHT22;5023;53.554;9.964;2023-01-06T10:10:49;10.70;99.90
9965;DHT22;5023;53.554;9.964;2023-01-06T10:16:01;10.70;99.90
9965;DHT22;5023;53.554;9.964;2023-01-06T10:21:11;10.70;99.90
9965;DHT22;5023;53.554;9.964;2023-01-06T10:26:22;10.70;99.90
9965;DHT22;5023;53.554;9.964;2023-01-06T10:31:30;10.70;99.90
9965;DHT22;5023;53.554;9.964;2023-01-06T10:36:39;10.70;99.90
9965;DHT22;5023;53.554;9.964;2023-01-06T10:41:49;10.70;99.90
9965;DHT22;5023;53.554;9.964;2023-01-06T10:47:22;10.70;99.90
9965;DHT22;5023;53.554;9.964;2023-01-06T10:52:26;10.70;99.90
9965;DHT22;5023;53.554;9.964;2023-01-06T10:57:34;10.70;99.90
9965;DHT22;5023;53.554;9.964;2023-01-06T11:02:45;10.70;99.90
9965;DHT22;5023;53.554;9.964;2023-01-06T11:07:54;10.80;99.90
9965;DHT22;5023;53.554;9.964;2023-01-06T11:13:00;10.80;99.90
9965;DHT22;5023;53.554;9.964;2023-01-06T11:18:13;10.90;99.90
9965;DHT22;5023;53.554;9.964;2023-01-06T11:23:21;10.60;99.90
9965;DHT22;5023;53.554;9.964;2023-01-06T11:28:26;10.60;99.90
9965;DHT22;5023;53.554;9.964;2023-01-06T11:33:31;10.60;99.90
9965;DHT22;5023;53.554;9.964;2023-01-06T11:38:41;10.60;99.90
9965;DHT22;5023;53.554;9.964;2023-01-06T11:43:45;10.60;99.90
9965;DHT22;5023;53.554;9.964;2023-01-06T11:48:51;10.60;99.90
9965;DHT22;5023;53.554;9.964;2023-01-06T11:53:56;10.60;99.90
9965;DHT22;5023;53.554;9.964;2023-01-06T11:59:07;10.60;99.90
9965;DHT22;5023;53.554;9.964;2023-01-06T12:04:15;10.50;99.90
9965;DHT22;5023;53.554;9.964;2023-01-06T12:09:22;10.40;99.90
9965;DHT22;5023;53.554;9.964;2023-01-06T12:14:34;10.40;99.90
9965;DHT22;5023;53.554;9.964;2023-01-06T12:19:44;10.50;99.90
9965;DHT22;5023;53.554;9.964;2023-01-06T12:24:50;10.50;99.90
9965;DHT22;5023;53.554;9.964;2023-01-06T12:29:58;10.60;99.90
9965;DHT22;5023;53.554;9.964;2023-01-06T12:35:02;10.80;99.90
9965;DHT22;5023;53.554;9.964;2023-01-06T12:40:12;10.70;99.90
9965;DHT22;5023;53.554;9.964;2023-01-06T12:45:22;10.60;99.90
9965;DHT22;5023;53.554;9.964;2023-01-06T12:50:34;10.60;99.90
9965;DHT22;5023;53.554;9.964;2023-01-06T12:55:39;10.60;99.90
9965;DHT22;5023;53.554;9.964;2023-01-06T13:00:49;10.70;99.90
9965;DHT22;5023;53.554;9.964;2023-01-06T13:06:05;10.60;99.90
9965;DHT22;5023;53.554;9.964;2023-01-06T13:11:16;10.50;99.90
9965;DHT22;5023;53.554;9.964;2023-01-06T13:16:29;10.40;99.90
9965;DHT22;5023;53.554;9.964;2023-01-06T13:21:32;10.30;99.90
9965;DHT22;5023;53.554;9.964;2023-01-06T13:26:48;10.30;99.90
9965;DHT22;5023;53.554;9.964;2023-01-06T13:32:16;10.30;99.90
9965;DHT22;5023;53.554;9.964;2023-01-06T13:37:34;10.30;99.90
9965;DHT22;5023;53.554;9.964;2023-01-06T13:42:40;10.30;99.90
9965;DHT22;5023;53.554;9.964;2023-01-06T13:47:46;10.30;99.90
9965;DHT22;5023;53.554;9.964;2023-01-06T13:52:50;10.30;99.90
9965;DHT22;5023;53.554;9.964;2023-01-06T13:57:52;10.30;99.90
9965;DHT22;5023;53.554;9.964;2023-01-06T14:03:22;10.30;99.90
9965;DHT22;5023;53.554;9.964;2023-01-06T14:08:28;10.30;99.90
9965;DHT22;5023;53.554;9.964;2023-01-06T14:13:35;10.40;99.90
9965;DHT22;5023;53.554;9.964;2023-01-06T14:18:43;10.30;99.90
9965;DHT22;5023;53.554;9.964;2023-01-06T14:23:52;10.20;99.90
9965;DHT22;5023;53.554;9.964;2023-01-06T14:34:41;10.30;99.90
9965;DHT22;5023;53.554;9.964;2023-01-06T14:39:47;10.20;99.90
9965;DHT22;5023;53.554;9.964;2023-01-06T14:44:52;10.20;99.90
9965;DHT22;5023;53.554;9.964;2023-01-06T14:50:01;10.20;99.90
9965;DHT22;5023;53.554;9.964;2023-01-06T14:55:09;10.20;99.90
9965;DHT22;5023;53.554;9.964;2023-01-06T15:00:18;10.20;99.90
9965;DHT22;5023;53.554;9.964;2023-01-06T15:05:28;10.10;99.90
9965;DHT22;5023;53.554;9.964;2023-01-06T15:10:34;10.00;99.90
9965;DHT22;5023;53.554;9.964;2023-01-06T15:15:39;10.00;99.90
9965;DHT22;5023;53.554;9.964;2023-01-06T15:20:43;9.90;99.90
9965;DHT22;5023;53.554;9.964;2023-01-06T15:25:47;9.80;99.90
9965;DHT22;5023;53.554;9.964;2023-01-06T15:30:51;9.80;99.90
9965;DHT22;5023;53.554;9.964;2023-01-06T15:35:58;9.80;99.90
9965;DHT22;5023;53.554;9.964;2023-01-06T15:41:02;9.80;99.90
9965;DHT22;5023;53.554;9.964;2023-01-06T15:46:07;9.80;99.90
9965;DHT22;5023;53.554;9.964;2023-01-06T15:51:15;9.70;99.90
9965;DHT22;5023;53.554;9.964;2023-01-06T15:56:20;9.70;99.90
9965;DHT22;5023;53.554;9.964;2023-01-06T16:01:23;9.60;99.90
9965;DHT22;5023;53.554;9.964;2023-01-06T16:06:28;9.60;99.90
9965;DHT22;5023;53.554;9.964;2023-01-06T16:11:32;9.50;99.90
9965;DHT22;5023;53.554;9.964;2023-01-06T16:16:52;9.50;99.90
9965;DHT22;5023;53.554;9.964;2023-01-06T16:22:04;9.40;99.90
9965;DHT22;5023;53.554;9.964;2023-01-06T16:27:07;9.50;99.90
9965;DHT22;5023;53.554;9.964;2023-01-06T16:32:22;9.50;99.90
9965;DHT22;5023;53.554;9.964;2023-01-06T16:37:33;9.40;99.90
9965;DHT22;5023;53.554;9.964;2023-01-06T16:42:35;9.30;99.90
9965;DHT22;5023;53.554;9.964;2023-01-06T16:47:42;9.20;99.90
9965;DHT22;5023;53.554;9.964;2023-01-06T16:52:47;9.10;99.90
9965;DHT22;5023;53.554;9.964;2023-01-06T16:57:53;9.10;99.90
9965;DHT22;5023;53.554;9.964;2023-01-06T17:02:55;9.10;99.90
9965;DHT22;5023;53.554;9.964;2023-01-06T17:08:01;9.00;99.90
9965;DHT22;5023;53.554;9.964;2023-01-06T17:13:04;9.00;99.90
9965;DHT22;5023;53.554;9.964;2023-01-06T17:18:25;8.90;99.90
9965;DHT22;5023;53.554;9.964;2023-01-06T17:23:40;8.80;99.90
9965;DHT22;5023;53.554;9.964;2023-01-06T17:28:43;8.80;99.90
9965;DHT22;5023;53.554;9.964;2023-01-06T17:33:48;8.80;99.90
9965;DHT22;5023;53.554;9.964;2023-01-06T17:38:54;8.80;99.90
9965;DHT22;5023;53.554;9.964;2023-01-06T17:43:56;8.80;99.90
9965;DHT22;5023;53.554;9.964;2023-01-06T17:49:01;8.70;99.90
9965;DHT22;5023;53.554;9.964;2023-01-06T17:54:15;8.70;99.90
9965;DHT22;5023;53.554;9.964;2023-01-06T17:59:39;8.70;99.90
9965;DHT22;5023;53.554;9.964;2023-01-06T18:04:45;8.70;99.90
9965;DHT22;5023;53.554;9.964;2023-01-06T18:09:51;8.60;99.90
9965;DHT22;5023;53.554;9.964;2023-01-06T18:14:54;8.60;99.90
9965;DHT22;5023;53.554;9.964;2023-01-06T18:19:57;8.60;99.90
9965;DHT22;5023;53.554;9.964;2023-01-06T18:25:01;8.60;99.90
9965;DHT22;5023;53.554;9.964;2023-01-06T18:30:17;8.60;99.90
9965;DHT22;5023;53.554;9.964;2023-01-06T18:35:23;8.60;99.90
9965;DHT22;5023;53.554;9.964;2023-01-06T18:40:29;8.50;99.90
9965;DHT22;5023;53.554;9.964;2023-01-06T18:45:32;8.50;99.90
9965;DHT22;5023;53.554;9.964;2023-01-06T18:50:39;8.50;99.90
9965;DHT22;5023;53.554;9.964;2023-01-06T18:55:44;8.40;99.90
9965;DHT22;5023;53.554;9.964;2023-01-06T19:00:51;8.50;99.90
9965;DHT22;5023;53.554;9.964;2023-01-06T19:11:31;8.40;99.90
9965;DHT22;5023;53.554;9.964;2023-01-06T19:16:36;8.40;99.90
9965;DHT22;5023;53.554;9.964;2023-01-06T19:21:38;8.30;99.90
9965;DHT22;5023;53.554;9.964;2023-01-06T19:26:42;8.30;99.90
9965;DHT22;5023;53.554;9.964;2023-01-06T19:31:53;8.30;99.90
9965;DHT22;5023;53.554;9.964;2023-01-06T19:36:56;8.30;99.90
9965;DHT22;5023;53.554;9.964;2023-01-06T19:42:13;8.20;99.90
9965;DHT22;5023;53.554;9.964;2023-01-06T19:47:22;8.20;99.90
9965;DHT22;5023;53.554;9.964;2023-01-06T19:52:28;8.20;99.90
9965;DHT22;5023;53.554;9.964;2023-01-06T19:57:38;8.20;99.90
9965;DHT22;5023;53.554;9.964;2023-01-06T20:02:42;8.20;99.90
9965;DHT22;5023;53.554;9.964;2023-01-06T20:07:47;8.10;99.90
9965;DHT22;5023;53.554;9.964;2023-01-06T20:12:51;8.20;99.90
9965;DHT22;5023;53.554;9.964;2023-01-06T20:17:57;8.20;99.90
9965;DHT22;5023;53.554;9.964;2023-01-06T20:23:00;8.10;99.90
9965;DHT22;5023;53.554;9.964;2023-01-06T20:28:04;8.20;99.90
9965;DHT22;5023;53.554;9.964;2023-01-06T20:33:06;8.20;99.90
9965;DHT22;5023;53.554;9.964;2023-01-06T20:38:08;8.10;99.90
9965;DHT22;5023;53.554;9.964;2023-01-06T20:43:12;8.10;99.90
9965;DHT22;5023;53.554;9.964;2023-01-06T20:48:14;8.10;99.90
9965;DHT22;5023;53.554;9.964;2023-01-06T20:53:17;8.10;99.90
9965;DHT22;5023;53.554;9.964;2023-01-06T20:58:20;8.10;99.90
9965;DHT22;5023;53.554;9.964;2023-01-06T21:03:24;8.10;99.90
9965;DHT22;5023;53.554;9.964;2023-01-06T21:08:26;8.10;99.90
9965;DHT22;5023;53.554;9.964;2023-01-06T21:13:29;8.10;99.90
9965;DHT22;5023;53.554;9.964;2023-01-06T21:18:31;8.10;99.90
9965;DHT22;5023;53.554;9.964;2023-01-06T21:23:34;8.10;99.90
9965;DHT22;5023;53.554;9.964;2023-01-06T21:28:38;8.10;99.90
9965;DHT22;5023;53.554;9.964;2023-01-06T21:33:40;8.10;99.90
9965;DHT22;5023;53.554;9.964;2023-01-06T21:38:42;8.20;99.90
9965;DHT22;5023;53.554;9.964;2023-01-06T21:43:49;8.00;99.90
9965;DHT22;5023;53.554;9.964;2023-01-06T21:48:51;8.10;99.90
9965;DHT22;5023;53.554;9.964;2023-01-06T21:53:54;8.10;99.90
9965;DHT22;5023;53.554;9.964;2023-01-06T21:58:59;8.10;99.90
9965;DHT22;5023;53.554;9.964;2023-01-06T22:04:01;8.20;99.90
9965;DHT22;5023;53.554;9.964;2023-01-06T22:09:05;8.20;99.90
9965;DHT22;5023;53.554;9.964;2023-01-06T22:14:13;8.20;99.90
9965;DHT22;5023;53.554;9.964;2023-01-06T22:19:16;8.20;99.90
9965;DHT22;5023;53.554;9.964;2023-01-06T22:24:19;8.20;99.90
9965;DHT22;5023;53.554;9.964;2023-01-06T22:29:24;8.20;99.90
9965;DHT22;5023;53.554;9.964;2023-01-06T22:34:27;8.20;99.90
9965;DHT22;5023;53.554;9.964;2023-01-06T22:39:29;8.20;99.90
9965;DHT22;5023;53.554;9.964;2023-01-06T22:44:34;8.20;99.90
9965;DHT22;5023;53.554;9.964;2023-01-06T22:49:36;8.20;99.90
9965;DHT22;5023;53.554;9.964;2023-01-06T22:54:38;8.10;99.90
9965;DHT22;5023;53.554;9.964;2023-01-06T22:59:42;8.10;99.90
9965;DHT22;5023;53.554;9.964;2023-01-06T23:04:44;8.00;99.90
9965;DHT22;5023;53.554;9.964;2023-01-06T23:09:46;7.90;99.90
9965;DHT22;5023;53.554;9.964;2023-01-06T23:14:52;7.80;99.90
9965;DHT22;5023;53.554;9.964;2023-01-06T23:19:54;7.80;99.90
9965;DHT22;5023;53.554;9.964;2023-01-06T23:24:56;7.80;99.90
9965;DHT22;5023;53.554;9.964;2023-01-06T23:30:02;7.70;99.90
9965;DHT22;5023;53.554;9.964;2023-01-06T23:35:08;7.70;99.90
9965;DHT22;5023;53.554;9.964;2023-01-06T23:40:11;7.70;99.90
9965;DHT22;5023;53.554;9.964;2023-01-06T23:45:15;7.60;99.90
9965;DHT22;5023;53.554;9.964;2023-01-06T23:50:17;7.60;99.90
9965;DHT22;5023;53.554;9.964;2023-01-06T23:55:19;7.40;99.90
